NCAR-RAP Real-Time Weather Data

Output produced by METARs form (31 May 2020  14:21 UTC)
found at http://weather.rap.ucar.edu/surface/
 
KMSP 311353Z 16006KT 10SM SCT250 15/07 A3032 RMK AO2 SLP270 T01500067
KMSP 311253Z 15004KT 10SM FEW250 13/06 A3032 RMK AO2 SLP269 T01280061
KMSP 311153Z 15003KT 10SM FEW250 11/06 A3031 RMK AO2 SLP266 T01060061 10128 20083 53010
KMSP 311053Z 14005KT 10SM CLR 09/05 A3030 RMK AO2 SLP262 T00940050
KMSP 310953Z 00000KT 10SM CLR 08/06 A3030 RMK AO2 SLP261 T00830056
KMSP 310853Z 00000KT 10SM CLR 09/05 A3029 RMK AO2 SLP257 T00890050 51002
KMSP 310753Z 00000KT 10SM CLR 11/05 A3028 RMK AO2 SLP256 T01060050
KMSP 310653Z 00000KT 10SM CLR 11/06 A3029 RMK AO2 SLP257 T01060056
KMSP 310553Z 00000KT 10SM CLR 13/02 A3028 RMK AO2 SLP254 T01280017 10194 20122 402000094 51006
KMSP 310453Z VRB03KT 10SM CLR 12/02 A3028 RMK AO2 SLP254 T01220022
KMSP 310353Z 00000KT 10SM CLR 14/00 A3027 RMK AO2 SLP251 T01390000
KMSP 310253Z 04003KT 10SM CLR 15/M01 A3026 RMK AO2 SLP247 T01501006 53007
KMSP 310211Z 05004KT 10SM CLR 16/M01 A3025 RMK AO2 T01611006
KMSP 310153Z 04005KT 10SM CLR 16/M01 A3024 RMK AO2 SLP242 FU PLUMES NW T01611011
KMSP 310139Z 03006KT 10SM CLR 17/M02 A3024 RMK AO2 FU PLUMES NW T01671017
KMSP 310053Z 03005KT 10SM CLR 18/M02 A3024 RMK AO2 SLP239 T01781022
KMSP 302353Z 35004KT 10SM CLR 19/M01 A3024 RMK AO2 SLP240 T01941006 10200 20178 56006
KMSP 302253Z 35005KT 10SM CLR 20/M01 A3024 RMK AO2 SLP241 T02001011
KMSP 302153Z 35008G14KT 10SM CLR 19/M02 A3025 RMK AO2 SLP244 T01941017
KMSP 302053Z COR 01005KT 10SM CLR 19/M01 A3025 RMK AO2 SLP246 T01941006 56007
KMSP 301953Z 34008KT 10SM FEW055 19/00 A3026 RMK AO2 SLP248 T01890000
KMSP 301853Z 33009G16KT 10SM FEW055 19/01 A3026 RMK AO2 SLP249 T01890011
KMSP 301753Z 31007G16KT 10SM FEW055 18/04 A3028 RMK AO2 SLP253 T01830039 10183 20117 58006
KMSP 301653Z 35011KT 10SM FEW050 17/04 A3028 RMK AO2 SLP256 T01670044